Mississippi Star — 9HA2441 — position and weather

sailwx.info

Track history (hours):
 
Tides and Currents Weather Stations Pressure Air Temp Water Temp Dewpoint Dewpoint Depression Visibility Wind Speed Wind Dir Waves Ship Positions

Mississippi Star

Last reported at 2014-Sep-30 18:27 UTC. Time now 2014-Oct-01 04:01 UTC.
Position N 54°05' E 004°53'.

Length 128 m; draft 7.8 m.

Type: Ship. MMSI: 248621000.

Date/timePositionNaut miles runAvg speedWind from/ knotsBaromVisibWave heightAir tempDewpointWater temp
2014-Sep-30 18:27N 54°05' E 004°53'1112.0
2014-Sep-30 17:33N 54°06' E 005°11'1212.0
2014-Sep-30 16:33N 54°08' E 005°32'1211.8
2014-Sep-30 15:33N 54°09' E 005°52'4310.8
2014-Sep-30 11:33N 54°12' E 007°06'1010.4
2014-Sep-30 10:33N 54°12' E 007°23'1010.4
2014-Sep-30 09:33N 54°10' E 007°41'1212.0
2014-Sep-30 08:34N 54°03' E 007°58'1212.4
2014-Sep-30 07:33N 54°00' E 008°18'1514.8
2014-Sep-30 06:33N 53°54' E 008°41'1212.1
2014-Sep-30 05:33N 53°52' E 009°02'5 4.7
2014-Sep-30 04:33N 53°54' E 009°09'6 5.9
2014-Sep-30 03:29N 53°58' E 009°16'14 6.6
2014-Sep-30 01:25N 54°10' E 009°27'4 4.5
2014-Sep-30 00:33N 54°12' E 009°33'5 4.6
2014-Sep-29 23:33N 54°16' E 009°37'7 7.4
2014-Sep-29 22:33N 54°21' E 009°46'8 7.8
2014-Sep-29 21:33N 54°21' E 009°59'5 4.9
2014-Sep-29 20:33N 54°22' E 010°08'1 1.4
2014-Sep-29 19:33N 54°22' E 010°10'7 7.3
2014-Sep-29 18:33N 54°28' E 010°16'10 9.9
2014-Sep-29 17:33N 54°33' E 010°31'1111.2
2014-Sep-29 16:33N 54°35' E 010°50'1111.2
2014-Sep-29 15:33N 54°36' E 011°09'1110.9
2014-Sep-29 14:33N 54°32' E 011°26'1110.7
2014-Sep-29 13:33N 54°27' E 011°42'1110.8
2014-Sep-29 12:33N 54°26' E 012°01'1010.3
2014-Sep-29 11:33N 54°34' E 012°13'1111.1
2014-Sep-29 10:33N 54°41' E 012°27'1111.4
2014-Sep-29 09:33N 54°48' E 012°43'1211.9
2014-Sep-29 08:33N 54°51' E 013°03'1212.2
2014-Sep-29 07:33N 54°55' E 013°23'1211.9
2014-Sep-29 06:33N 54°59' E 013°43'1211.7
2014-Sep-29 05:33N 55°04' E 014°02'1111.4
2014-Sep-29 04:33N 55°12' E 014°15'1211.8
2014-Sep-29 03:33N 55°21' E 014°28'1111.3
2014-Sep-29 02:33N 55°29' E 014°43'1111.3
2014-Sep-29 01:33N 55°34' E 015°00'1111.3
2014-Sep-29 00:33N 55°40' E 015°17'1211.5
2014-Sep-28 23:33N 55°46' E 015°35'1111.5
2014-Sep-28 22:33N 55°52' E 015°53'1111.4
2014-Sep-28 21:33N 55°57' E 016°11'1211.4
2014-Sep-28 20:30N 56°03' E 016°29'1611.5
2014-Sep-28 19:07N 56°12' E 016°53'24410.6
2014-Sep-27 20:07N 59°32' E 021°16'610.8
2014-Sep-27 19:33N 59°38' E 021°19'1010.1
2014-Sep-27 18:33N 59°48' E 021°20'1211.9
2014-Sep-27 17:33N 59°56' E 021°39'5 0.2
2014-Sep-26 09:34N 59°53' E 021°31'1110.8
2014-Sep-26 08:34N 59°44' E 021°20'9 9.5
2014-Sep-26 07:33N 59°35' E 021°27'4611.3
2014-Sep-26 03:26N 59°35' E 022°59'1112.1
2014-Sep-26 02:33N 59°38' E 023°19'1212.0
2014-Sep-26 01:32N 59°41' E 023°42'1212.0
2014-Sep-26 00:33N 59°44' E 024°05'  
2014-Sep-22 04:09N 59°47' E 024°55'711.8
2014-Sep-22 03:33N 59°45' E 024°42'1211.6
2014-Sep-22 02:33N 59°43' E 024°20'1511.7
2014-Sep-22 01:18N 59°38' E 023°52'912.2
2014-Sep-22 00:33N 59°35' E 023°35'22012.9
2014-Sep-21 07:25N 56°57' E 018°43'9613.6
2014-Sep-21 00:19N 55°57' E 016°27'1513.5
2014-Sep-20 23:12N 55°50' E 016°04'2613.6
2014-Sep-20 21:18N 55°37' E 015°23'1013.7
2014-Sep-20 20:33N 55°32' E 015°07'1413.6
2014-Sep-20 19:33N 55°26' E 014°46'1313.5
2014-Sep-20 18:34N 55°16' E 014°29'  
Track history (hours):
 
Tides and Currents Weather Stations Pressure Air Temp Water Temp Dewpoint Dewpoint Depression Visibility Wind Speed Wind Dir Waves Ship Positions

Mississippi Star

Last reported at 2014-Sep-30 18:27 UTC. Time now 2014-Oct-01 04:01 UTC.
Position N 54°05' E 004°53'.

Length 128 m; draft 7.8 m.

Type: Ship. MMSI: 248621000.

Date/timePositionNaut miles runAvg speedWind from/ knotsBaromVisibWave heightAir tempDewpointWater temp
2014-Sep-30 18:27N 54°05' E 004°53'1112.0
2014-Sep-30 17:33N 54°06' E 005°11'1212.0
2014-Sep-30 16:33N 54°08' E 005°32'1211.8
2014-Sep-30 15:33N 54°09' E 005°52'4310.8
2014-Sep-30 11:33N 54°12' E 007°06'1010.4
2014-Sep-30 10:33N 54°12' E 007°23'1010.4
2014-Sep-30 09:33N 54°10' E 007°41'1212.0
2014-Sep-30 08:34N 54°03' E 007°58'1212.4
2014-Sep-30 07:33N 54°00' E 008°18'1514.8
2014-Sep-30 06:33N 53°54' E 008°41'1212.1
2014-Sep-30 05:33N 53°52' E 009°02'5 4.7
2014-Sep-30 04:33N 53°54' E 009°09'6 5.9
2014-Sep-30 03:29N 53°58' E 009°16'14 6.6
2014-Sep-30 01:25N 54°10' E 009°27'4 4.5
2014-Sep-30 00:33N 54°12' E 009°33'5 4.6
2014-Sep-29 23:33N 54°16' E 009°37'7 7.4
2014-Sep-29 22:33N 54°21' E 009°46'8 7.8
2014-Sep-29 21:33N 54°21' E 009°59'5 4.9
2014-Sep-29 20:33N 54°22' E 010°08'1 1.4
2014-Sep-29 19:33N 54°22' E 010°10'7 7.3
2014-Sep-29 18:33N 54°28' E 010°16'10 9.9
2014-Sep-29 17:33N 54°33' E 010°31'1111.2
2014-Sep-29 16:33N 54°35' E 010°50'1111.2
2014-Sep-29 15:33N 54°36' E 011°09'1110.9
2014-Sep-29 14:33N 54°32' E 011°26'1110.7
2014-Sep-29 13:33N 54°27' E 011°42'1110.8
2014-Sep-29 12:33N 54°26' E 012°01'1010.3
2014-Sep-29 11:33N 54°34' E 012°13'1111.1
2014-Sep-29 10:33N 54°41' E 012°27'1111.4
2014-Sep-29 09:33N 54°48' E 012°43'1211.9
2014-Sep-29 08:33N 54°51' E 013°03'1212.2
2014-Sep-29 07:33N 54°55' E 013°23'1211.9
2014-Sep-29 06:33N 54°59' E 013°43'1211.7
2014-Sep-29 05:33N 55°04' E 014°02'1111.4
2014-Sep-29 04:33N 55°12' E 014°15'1211.8
2014-Sep-29 03:33N 55°21' E 014°28'1111.3
2014-Sep-29 02:33N 55°29' E 014°43'1111.3
2014-Sep-29 01:33N 55°34' E 015°00'1111.3
2014-Sep-29 00:33N 55°40' E 015°17'1211.5
2014-Sep-28 23:33N 55°46' E 015°35'1111.5
2014-Sep-28 22:33N 55°52' E 015°53'1111.4
2014-Sep-28 21:33N 55°57' E 016°11'1211.4
2014-Sep-28 20:30N 56°03' E 016°29'1611.5
2014-Sep-28 19:07N 56°12' E 016°53'24410.6
2014-Sep-27 20:07N 59°32' E 021°16'610.8
2014-Sep-27 19:33N 59°38' E 021°19'1010.1
2014-Sep-27 18:33N 59°48' E 021°20'1211.9
2014-Sep-27 17:33N 59°56' E 021°39'5 0.2
2014-Sep-26 09:34N 59°53' E 021°31'1110.8
2014-Sep-26 08:34N 59°44' E 021°20'9 9.5
2014-Sep-26 07:33N 59°35' E 021°27'4611.3
2014-Sep-26 03:26N 59°35' E 022°59'1112.1
2014-Sep-26 02:33N 59°38' E 023°19'1212.0
2014-Sep-26 01:32N 59°41' E 023°42'1212.0
2014-Sep-26 00:33N 59°44' E 024°05'  
2014-Sep-22 04:09N 59°47' E 024°55'711.8
2014-Sep-22 03:33N 59°45' E 024°42'1211.6
2014-Sep-22 02:33N 59°43' E 024°20'1511.7
2014-Sep-22 01:18N 59°38' E 023°52'912.2
2014-Sep-22 00:33N 59°35' E 023°35'22012.9
2014-Sep-21 07:25N 56°57' E 018°43'9613.6
2014-Sep-21 00:19N 55°57' E 016°27'1513.5
2014-Sep-20 23:12N 55°50' E 016°04'2613.6
2014-Sep-20 21:18N 55°37' E 015°23'1013.7
2014-Sep-20 20:33N 55°32' E 015°07'1413.6
2014-Sep-20 19:33N 55°26' E 014°46'1313.5
2014-Sep-20 18:34N 55°16' E 014°29'  

Dump ship's entire track history